Time;durP1;ratioP1;P1;durP2;ratioP2;P2;SDS_P1;SDS_P2;PMS_P1;PMS_P2;Temp;Humidity;BMP_temperature;BMP_pressure;BME280_temperature;BME280_humidity;BME280_pressure;Samples;Min_cycle;Max_cycle;Signal;HPM_P1;HPM_P2
2022/01/12 00:00:28;;;;;;;40.30;16.20;;;3.20;99.90;;;;;;4994520;28;20038;-78
2022/01/12 00:02:54;;;;;;;38.75;16.65;;;3.20;99.90;;;;;;4978215;28;20042;-78
2022/01/12 00:05:21;;;;;;;37.90;15.70;;;3.20;99.90;;;;;;4994165;28;20437;-78
2022/01/12 00:07:49;;;;;;;40.50;17.23;;;3.20;99.90;;;;;;4995774;28;20042;-78
2022/01/12 00:10:17;;;;;;;33.88;16.08;;;3.20;99.90;;;;;;4995348;28;20042;-81
2022/01/12 00:12:42;;;;;;;35.17;16.85;;;3.20;99.90;;;;;;4997873;28;20334;-81
2022/01/12 00:15:09;;;;;;;39.70;15.52;;;3.20;99.90;;;;;;4996712;28;20049;-81
2022/01/12 00:17:34;;;;;;;44.15;18.60;;;3.20;99.90;;;;;;4996987;28;20058;-80
2022/01/12 00:20:00;;;;;;;42.28;17.98;;;3.30;99.90;;;;;;4995869;28;20042;-82
2022/01/12 00:22:27;;;;;;;38.95;17.00;;;3.30;99.90;;;;;;4996638;28;20125;-81
2022/01/12 00:35:34;;;;;;;42.58;17.35;;;3.30;99.90;;;;;;4996638;28;20092;-82
2022/01/12 00:38:00;;;;;;;38.60;17.50;;;3.30;99.90;;;;;;4996002;28;20096;-83
2022/01/12 00:40:25;;;;;;;41.92;18.42;;;3.30;99.90;;;;;;4997194;28;20512;-83
2022/01/12 00:42:51;;;;;;;45.35;17.60;;;3.30;99.90;;;;;;4996758;28;20077;-82
2022/01/12 00:45:18;;;;;;;40.05;17.40;;;3.30;99.90;;;;;;4980463;28;20088;-82
2022/01/12 00:47:44;;;;;;;48.20;18.83;;;3.30;99.90;;;;;;4996205;28;20117;-82
2022/01/12 00:50:10;;;;;;;42.20;16.95;;;3.30;99.90;;;;;;4996271;28;20079;-82
2022/01/12 00:52:35;;;;;;;40.45;15.68;;;3.30;99.90;;;;;;4996741;28;20081;-82
2022/01/12 00:55:01;;;;;;;37.50;15.82;;;3.30;99.90;;;;;;4996241;28;20046;-82
2022/01/12 00:57:26;;;;;;;44.03;17.45;;;3.30;99.90;;;;;;4996589;28;20045;-82
2022/01/12 00:59:52;;;;;;;44.13;16.40;;;3.30;99.90;;;;;;4997560;28;20141;-82
2022/01/12 01:02:17;;;;;;;41.67;17.08;;;3.30;99.90;;;;;;4996043;28;20061;-82
2022/01/12 01:04:43;;;;;;;37.60;16.83;;;3.30;99.90;;;;;;4995658;28;20048;-82
2022/01/12 01:07:08;;;;;;;47.03;17.67;;;3.30;99.90;;;;;;4995650;28;20121;-83
2022/01/12 01:09:40;;;;;;;37.42;15.77;;;3.40;99.90;;;;;;4996055;28;20042;-83
2022/01/12 01:12:06;;;;;;;44.72;19.02;;;3.30;99.90;;;;;;4995772;28;20081;-82
2022/01/12 01:14:48;;;;;;;37.20;17.13;;;3.40;99.90;;;;;;4996230;28;20050;-82
2022/01/12 01:27:51;;;;;;;37.97;16.50;;;3.40;99.90;;;;;;4994132;28;20046;-82
2022/01/12 01:30:17;;;;;;;51.30;18.85;;;3.40;99.90;;;;;;4993834;28;20105;-82
2022/01/12 01:32:43;;;;;;;38.92;16.35;;;3.40;99.90;;;;;;4995461;28;20041;-82
2022/01/12 01:35:09;;;;;;;42.78;17.42;;;3.40;99.90;;;;;;4995044;28;20117;-82
2022/01/12 01:37:35;;;;;;;46.63;18.00;;;3.40;99.90;;;;;;4978261;28;20074;-83
2022/01/12 01:40:00;;;;;;;45.25;18.48;;;3.40;99.90;;;;;;4994567;28;20452;-82
2022/01/12 01:42:41;;;;;;;46.47;18.77;;;3.40;99.90;;;;;;4994743;28;20085;-82
2022/01/12 01:53:22;;;;;;;50.10;18.98;;;3.40;99.90;;;;;;4994754;28;20101;-81
2022/01/12 01:55:49;;;;;;;48.15;19.55;;;3.50;99.90;;;;;;4995991;28;20050;-82
2022/01/12 01:58:15;;;;;;;41.45;18.27;;;3.40;99.90;;;;;;4996850;28;20517;-81
2022/01/12 02:00:41;;;;;;;55.22;19.60;;;3.50;99.90;;;;;;4995500;28;20334;-82
2022/01/12 02:03:07;;;;;;;53.80;20.45;;;3.50;99.90;;;;;;4995300;28;20042;-82
2022/01/12 02:05:33;;;;;;;53.25;19.55;;;3.50;99.90;;;;;;4979287;28;20045;-82
2022/01/12 02:08:00;;;;;;;72.07;20.98;;;3.50;99.90;;;;;;4995171;28;20121;-82
2022/01/12 02:10:26;;;;;;;48.83;20.08;;;3.50;99.90;;;;;;4979018;28;20046;-82
2022/01/12 02:12:52;;;;;;;61.25;20.67;;;3.50;99.90;;;;;;4995264;28;20038;-82
2022/01/12 02:15:22;;;;;;;77.32;24.05;;;3.50;99.90;;;;;;4995042;28;20049;-82
2022/01/12 02:40:10;;;;;;;101.97;26.38;;;3.60;99.90;;;;;;4997926;28;20101;-81
2022/01/12 02:42:39;;;;;;;78.20;24.00;;;3.60;99.90;;;;;;4998844;28;20575;-82
2022/01/12 02:56:02;;;;;;;61.63;22.83;;;3.60;99.90;;;;;;4996994;28;20105;-81
2022/01/12 02:58:27;;;;;;;72.68;24.17;;;3.60;99.90;;;;;;4981149;28;20042;-81
2022/01/12 03:01:27;;;;;;;66.80;22.02;;;3.60;99.90;;;;;;4998299;28;20053;-82
2022/01/12 03:03:53;;;;;;;80.75;23.83;;;3.60;99.90;;;;;;4997797;28;20120;-82
2022/01/12 03:06:24;;;;;;;74.45;23.20;;;3.60;99.90;;;;;;4998096;28;20104;-82
2022/01/12 03:08:51;;;;;;;75.03;23.35;;;3.60;99.90;;;;;;4981015;28;20658;-82
2022/01/12 03:11:18;;;;;;;83.38;24.55;;;3.60;99.90;;;;;;4997870;28;20493;-82
2022/01/12 03:13:44;;;;;;;82.68;23.65;;;3.60;99.90;;;;;;4997384;28;20149;-81
2022/01/12 03:16:15;;;;;;;82.97;23.48;;;3.70;99.90;;;;;;4996974;28;20074;-82
2022/01/12 03:18:43;;;;;;;94.35;24.65;;;3.60;99.90;;;;;;4997963;28;20043;-81
2022/01/12 03:21:09;;;;;;;91.20;24.08;;;3.60;99.90;;;;;;4997257;28;20125;-82
2022/01/12 03:23:34;;;;;;;99.22;25.45;;;3.60;99.90;;;;;;4997300;28;20066;-81
2022/01/12 03:26:00;;;;;;;163.13;30.75;;;3.60;99.90;;;;;;4997205;28;20038;-82
2022/01/12 03:28:26;;;;;;;84.57;24.15;;;3.60;99.90;;;;;;4980707;28;20053;-82
2022/01/12 03:30:55;;;;;;;80.88;26.08;;;3.60;99.90;;;;;;4980982;28;20048;-82
2022/01/12 03:34:26;;;;;;;92.05;23.67;;;3.60;99.90;;;;;;4997710;28;20552;-82
2022/01/12 03:39:12;;;;;;;127.53;29.52;;;3.60;99.90;;;;;;4996836;28;20046;-81
2022/01/12 03:41:40;;;;;;;155.73;30.98;;;3.70;99.90;;;;;;4997483;28;20402;-83
2022/01/12 03:44:08;;;;;;;126.93;29.73;;;3.70;99.90;;;;;;4997161;28;20498;-81
2022/01/12 03:46:48;;;;;;;120.00;28.30;;;3.70;99.90;;;;;;4996952;28;20096;-82
2022/01/12 03:49:14;;;;;;;151.52;30.67;;;3.60;99.90;;;;;;4980859;28;20066;-81
2022/01/12 03:51:40;;;;;;;118.55;27.55;;;3.70;99.90;;;;;;4997022;28;20172;-82
2022/01/12 03:54:06;;;;;;;135.82;27.60;;;3.60;99.90;;;;;;4996591;28;20509;-82
2022/01/12 03:56:32;;;;;;;90.45;25.13;;;3.70;99.90;;;;;;4996776;28;20038;-82
2022/01/12 03:58:57;;;;;;;108.97;29.33;;;3.70;99.90;;;;;;4996759;28;20051;-82
2022/01/12 04:01:23;;;;;;;111.57;29.23;;;3.70;99.90;;;;;;4996891;28;20041;-82
2022/01/12 04:03:59;;;;;;;114.93;26.13;;;3.70;99.90;;;;;;4996269;28;20042;-83
2022/01/12 04:09:10;;;;;;;98.90;26.70;;;3.70;99.90;;;;;;4996648;28;20520;-81
2022/01/12 04:11:36;;;;;;;122.35;26.00;;;3.70;99.90;;;;;;4996212;28;20050;-82
2022/01/12 04:14:03;;;;;;;98.13;26.98;;;3.80;99.90;;;;;;4995927;28;20092;-81
2022/01/12 04:16:28;;;;;;;93.93;26.00;;;3.70;99.90;;;;;;4980094;28;20077;-81
2022/01/12 04:18:54;;;;;;;107.15;26.73;;;3.70;99.90;;;;;;4979719;28;20042;-81
2022/01/12 04:21:26;;;;;;;98.65;24.65;;;3.70;99.90;;;;;;4995237;28;20038;-82
2022/01/12 04:23:52;;;;;;;111.60;27.83;;;3.70;99.90;;;;;;4996584;28;20077;-82
2022/01/12 04:26:18;;;;;;;123.18;29.05;;;3.70;99.90;;;;;;4996134;28;20044;-82
2022/01/12 04:28:44;;;;;;;111.25;28.10;;;3.70;99.90;;;;;;4997036;28;20046;-82
2022/01/12 04:31:11;;;;;;;112.30;26.15;;;3.70;99.90;;;;;;4996709;28;20046;-82
2022/01/12 04:33:38;;;;;;;110.78;25.80;;;3.70;99.90;;;;;;4996285;28;20058;-82
2022/01/12 04:36:06;;;;;;;102.63;27.17;;;3.70;99.90;;;;;;4980289;28;20393;-82
2022/01/12 04:38:34;;;;;;;142.07;30.63;;;3.70;99.90;;;;;;4996005;28;20494;-83
2022/01/12 04:41:05;;;;;;;97.72;26.60;;;3.70;99.90;;;;;;4996395;28;20089;-83
2022/01/12 04:43:33;;;;;;;97.65;25.58;;;3.70;99.90;;;;;;4997561;28;20433;-82
2022/01/12 04:50:56;;;;;;;85.82;23.90;;;3.80;99.90;;;;;;4995154;28;20391;-78
2022/01/12 04:53:22;;;;;;;85.43;24.17;;;3.70;99.90;;;;;;4993789;28;20088;-79
2022/01/12 04:55:49;;;;;;;83.07;25.17;;;3.70;99.90;;;;;;4995063;28;20177;-78
2022/01/12 04:58:16;;;;;;;75.88;24.02;;;3.70;99.90;;;;;;4977114;28;20053;-78
2022/01/12 05:00:43;;;;;;;78.70;23.75;;;3.80;99.90;;;;;;4993584;28;20378;-79
2022/01/12 05:08:52;;;;;;;71.13;22.38;;;3.70;99.90;;;;;;4993267;28;20423;-78
2022/01/12 05:14:02;;;;;;;69.65;20.90;;;3.60;99.90;;;;;;4993940;28;20084;-78
2022/01/12 05:16:28;;;;;;;65.20;19.25;;;3.50;99.90;;;;;;4993338;28;20240;-78
2022/01/12 05:18:55;;;;;;;62.70;19.33;;;3.40;99.90;;;;;;4993135;28;20486;-78
2022/01/12 05:21:22;;;;;;;62.40;18.63;;;3.30;99.90;;;;;;4976792;28;20078;-78
2022/01/12 05:23:48;;;;;;;47.50;16.98;;;3.20;99.90;;;;;;4993400;28;20057;-78
2022/01/12 05:26:14;;;;;;;57.30;18.67;;;3.10;99.90;;;;;;4994823;28;20096;-78
2022/01/12 05:28:40;;;;;;;53.17;16.92;;;3.00;99.90;;;;;;4993365;28;20049;-78
2022/01/12 05:31:07;;;;;;;63.05;18.60;;;3.00;99.90;;;;;;4994435;28;20045;-78
2022/01/12 05:33:33;;;;;;;64.65;19.67;;;2.90;99.90;;;;;;4993338;28;20121;-78
2022/01/12 05:36:02;;;;;;;59.15;19.58;;;2.70;99.90;;;;;;4994855;28;20073;-78
2022/01/12 05:38:28;;;;;;;60.78;20.02;;;2.70;99.90;;;;;;4994927;28;20070;-78
2022/01/12 05:40:57;;;;;;;70.75;20.20;;;2.70;99.90;;;;;;4977254;28;20171;-78
2022/01/12 05:43:28;;;;;;;52.55;18.25;;;2.60;99.90;;;;;;4993900;28;20042;-78
2022/01/12 05:45:56;;;;;;;58.08;19.98;;;2.60;99.90;;;;;;4992468;28;20042;-81
2022/01/12 05:50:49;;;;;;;64.82;20.60;;;2.50;99.90;;;;;;4992373;28;20050;-81
2022/01/12 05:53:16;;;;;;;73.53;21.75;;;2.50;99.90;;;;;;4993830;28;20512;-81
2022/01/12 05:55:42;;;;;;;70.75;20.10;;;2.50;99.90;;;;;;4976200;28;20034;-81
2022/01/12 05:58:08;;;;;;;57.50;20.02;;;2.50;99.90;;;;;;4996040;28;20098;-81
2022/01/12 06:00:34;;;;;;;63.25;20.55;;;2.50;99.90;;;;;;4994841;28;20462;-81
2022/01/12 06:02:59;;;;;;;424.30;46.10;;;2.50;99.90;;;;;;4992152;28;20051;-81
2022/01/12 06:05:27;;;;;;;386.08;42.60;;;2.50;99.90;;;;;;4991996;28;20133;-81
2022/01/12 06:07:53;;;;;;;132.18;23.33;;;2.50;99.90;;;;;;4993016;28;20053;-81
2022/01/12 06:10:23;;;;;;;154.57;26.48;;;2.60;99.90;;;;;;4991990;28;20038;-81
2022/01/12 06:12:50;;;;;;;167.52;27.63;;;2.50;99.90;;;;;;4993221;28;21043;-80
2022/01/12 06:15:16;;;;;;;77.88;21.00;;;2.60;99.90;;;;;;4993038;28;20046;-81
2022/01/12 06:17:42;;;;;;;56.67;19.55;;;2.60;99.90;;;;;;4976519;28;20497;-81
2022/01/12 06:20:08;;;;;;;89.40;22.70;;;2.70;99.90;;;;;;4991651;28;20057;-81
2022/01/12 06:22:37;;;;;;;140.23;29.08;;;2.70;99.90;;;;;;4992811;28;20053;-81
2022/01/12 06:25:07;;;;;;;69.20;21.95;;;2.80;99.90;;;;;;4991761;28;20042;-81
2022/01/12 06:27:34;;;;;;;60.15;19.00;;;2.80;99.90;;;;;;4993745;28;20035;-81
2022/01/12 06:31:10;;;;;;;71.55;20.73;;;2.80;99.90;;;;;;4992842;28;20178;-81
2022/01/12 06:33:00;;;;;;;59.00;19.50;;;2.90;99.90;;;;;;4992141;28;20054;-81
2022/01/12 06:35:26;;;;;;;61.67;20.83;;;2.90;99.90;;;;;;4993081;28;20042;-81
2022/01/12 06:37:52;;;;;;;168.45;70.57;;;2.90;99.90;;;;;;4992421;28;20073;-81
2022/01/12 06:40:19;;;;;;;57.75;20.63;;;2.80;99.90;;;;;;4975283;28;20391;-81
2022/01/12 06:42:45;;;;;;;59.05;18.63;;;2.80;99.90;;;;;;4991845;28;20053;-81
2022/01/12 06:45:11;;;;;;;49.15;18.63;;;2.80;99.90;;;;;;4994011;28;20045;-81
2022/01/12 06:47:37;;;;;;;55.05;19.80;;;2.70;99.90;;;;;;4995322;28;20050;-80
2022/01/12 06:50:05;;;;;;;68.28;18.63;;;2.80;99.90;;;;;;4994696;28;20054;-80
2022/01/12 06:52:30;;;;;;;45.13;16.00;;;2.80;99.90;;;;;;4994759;28;20125;-80
2022/01/12 06:58:27;;;;;;;59.95;16.60;;;2.80;99.90;;;;;;4994155;28;20464;-80
2022/01/12 07:00:53;;;;;;;43.63;15.93;;;2.70;99.90;;;;;;4994453;28;20046;-80
2022/01/12 07:03:19;;;;;;;53.67;17.42;;;2.70;99.90;;;;;;4995634;28;20042;-80
2022/01/12 07:05:44;;;;;;;42.67;15.23;;;2.60;99.90;;;;;;4994132;28;20038;-80
2022/01/12 07:08:10;;;;;;;40.75;15.38;;;2.50;99.90;;;;;;4994440;28;20118;-80
2022/01/12 07:10:35;;;;;;;50.28;16.23;;;2.50;99.90;;;;;;4994687;28;20042;-80
2022/01/12 07:13:01;;;;;;;38.53;14.90;;;2.50;99.90;;;;;;4994088;28;20073;-80
2022/01/12 07:15:26;;;;;;;40.60;14.85;;;2.40;99.90;;;;;;4994242;28;20045;-80
2022/01/12 07:17:52;;;;;;;44.40;14.93;;;2.40;99.90;;;;;;4978008;28;20053;-80
2022/01/12 07:20:17;;;;;;;49.38;16.70;;;2.40;99.90;;;;;;4993967;28;20042;-80
2022/01/12 07:22:43;;;;;;;30.17;13.70;;;2.30;99.90;;;;;;4978876;28;20039;-81
2022/01/12 07:25:09;;;;;;;46.35;17.02;;;2.30;99.90;;;;;;4996105;28;20057;-81
2022/01/12 07:27:35;;;;;;;69.38;19.05;;;2.20;99.90;;;;;;4997513;28;20047;-81
2022/01/12 07:30:01;;;;;;;34.05;13.55;;;2.20;99.90;;;;;;4984258;28;20042;-81
2022/01/12 07:32:29;;;;;;;54.53;15.38;;;2.10;99.90;;;;;;4998897;28;20518;-81
2022/01/12 07:34:55;;;;;;;38.90;13.32;;;2.10;99.90;;;;;;4980419;28;20042;-82
2022/01/12 07:37:22;;;;;;;40.38;15.02;;;2.00;99.90;;;;;;4995104;28;20048;-82
2022/01/12 07:39:48;;;;;;;45.03;15.18;;;2.00;99.90;;;;;;4995448;28;20053;-81
2022/01/12 07:42:13;;;;;;;32.78;11.20;;;1.90;99.90;;;;;;4996337;28;20042;-81
2022/01/12 07:44:39;;;;;;;39.20;14.27;;;1.90;99.90;;;;;;4995627;28;20387;-81
2022/01/12 07:47:05;;;;;;;34.33;12.88;;;1.80;99.90;;;;;;4995483;28;20050;-81
2022/01/12 07:49:33;;;;;;;35.92;12.07;;;1.80;99.90;;;;;;4995121;28;20142;-81
2022/01/12 07:52:00;;;;;;;33.50;13.20;;;1.80;99.90;;;;;;4995452;28;20108;-81
2022/01/12 07:54:25;;;;;;;44.83;13.57;;;1.80;99.90;;;;;;4978592;28;20526;-82
2022/01/12 07:56:51;;;;;;;34.97;13.32;;;1.80;99.90;;;;;;4993901;28;20113;-81
2022/01/12 07:59:16;;;;;;;44.47;14.07;;;1.70;99.90;;;;;;4994266;28;20093;-81
2022/01/12 08:01:42;;;;;;;29.67;12.65;;;1.80;99.90;;;;;;4994841;28;20046;-81
2022/01/12 08:04:08;;;;;;;30.83;12.57;;;1.70;99.90;;;;;;4994260;28;20050;-81
2022/01/12 08:06:33;;;;;;;37.00;13.18;;;1.70;99.90;;;;;;4994416;28;20045;-81
2022/01/12 08:08:59;;;;;;;67.60;16.38;;;1.70;99.90;;;;;;4993958;28;20555;-81
2022/01/12 08:11:25;;;;;;;62.80;16.90;;;1.70;99.90;;;;;;4977592;28;20088;-81
2022/01/12 08:13:50;;;;;;;42.78;13.30;;;1.80;99.90;;;;;;4994410;28;20073;-81
2022/01/12 08:16:16;;;;;;;75.68;18.30;;;1.70;99.90;;;;;;4978619;28;20054;-81
2022/01/12 08:18:42;;;;;;;41.13;14.40;;;1.80;99.90;;;;;;4995808;28;20046;-81
2022/01/12 08:21:07;;;;;;;46.25;13.32;;;1.80;99.90;;;;;;4978307;28;20125;-81
2022/01/12 08:23:33;;;;;;;43.33;13.68;;;1.80;99.90;;;;;;4995550;28;20054;-82
2022/01/12 08:25:59;;;;;;;41.63;13.63;;;1.80;99.90;;;;;;4995334;28;20097;-82
2022/01/12 08:28:25;;;;;;;41.45;14.25;;;1.80;99.90;;;;;;4994886;28;20038;-82
2022/01/12 08:30:51;;;;;;;38.33;13.45;;;1.90;99.90;;;;;;4994223;28;20054;-82
2022/01/12 08:33:17;;;;;;;47.50;14.48;;;2.00;99.90;;;;;;4993592;28;20133;-82
2022/01/12 08:35:43;;;;;;;40.90;13.98;;;2.10;99.90;;;;;;4993933;28;20563;-82
2022/01/12 08:38:08;;;;;;;43.88;15.38;;;2.20;99.90;;;;;;4994162;28;20046;-82
2022/01/12 08:40:37;;;;;;;43.15;14.30;;;2.40;99.90;;;;;;4995052;28;20053;-81
2022/01/12 08:43:06;;;;;;;40.65;14.43;;;2.40;99.90;;;;;;4996116;28;20114;-81
2022/01/12 08:45:31;;;;;;;53.67;16.27;;;2.50;99.90;;;;;;4996902;28;20042;-82
2022/01/12 08:47:57;;;;;;;78.65;19.27;;;2.60;99.90;;;;;;4995653;28;20153;-82
2022/01/12 08:50:23;;;;;;;55.80;16.30;;;2.70;99.90;;;;;;4994336;28;20077;-82
2022/01/12 08:52:49;;;;;;;60.15;16.42;;;2.70;99.90;;;;;;4993489;28;20057;-82
2022/01/12 08:55:18;;;;;;;56.80;16.00;;;2.90;99.90;;;;;;4993441;28;20410;-82
2022/01/12 08:57:44;;;;;;;89.75;18.60;;;3.00;99.90;;;;;;4993359;28;20050;-82
2022/01/12 09:00:11;;;;;;;52.97;15.20;;;3.00;99.90;;;;;;4993040;28;20104;-82
2022/01/12 09:02:37;;;;;;;46.70;14.13;;;3.10;99.90;;;;;;4993370;28;20053;-82
2022/01/12 09:05:04;;;;;;;58.97;17.70;;;3.20;99.90;;;;;;4992982;28;20466;-82
2022/01/12 09:07:30;;;;;;;63.67;15.07;;;3.30;99.90;;;;;;4979953;28;20030;-78
2022/01/12 09:09:55;;;;;;;55.08;15.52;;;3.40;99.90;;;;;;4999494;28;20058;-79
2022/01/12 09:12:21;;;;;;;58.67;15.75;;;3.50;99.90;;;;;;5001006;28;20053;-78
2022/01/12 09:14:48;;;;;;;59.10;15.90;;;3.50;99.90;;;;;;4999275;28;20081;-79
2022/01/12 09:17:18;;;;;;;48.08;15.70;;;3.60;99.90;;;;;;4997400;28;20045;-78
2022/01/12 09:19:45;;;;;;;58.90;14.43;;;3.70;99.90;;;;;;4998235;28;20465;-79
2022/01/12 09:22:11;;;;;;;49.08;14.43;;;3.80;99.90;;;;;;4997305;28;20073;-79
2022/01/12 09:24:37;;;;;;;46.00;14.80;;;3.80;99.90;;;;;;4997467;28;20501;-78
2022/01/12 09:27:03;;;;;;;41.22;14.32;;;3.90;99.90;;;;;;4997535;28;20070;-78
2022/01/12 09:29:28;;;;;;;51.13;14.05;;;3.90;99.90;;;;;;4997232;28;20070;-79
2022/01/12 09:31:54;;;;;;;46.30;13.20;;;4.00;99.90;;;;;;4997397;28;20046;-79
2022/01/12 09:34:20;;;;;;;37.75;12.32;;;4.00;99.90;;;;;;4981301;28;20501;-79
2022/01/12 09:36:45;;;;;;;48.80;13.40;;;4.10;99.90;;;;;;4997032;28;20046;-78
2022/01/12 09:39:11;;;;;;;45.42;13.45;;;4.10;99.90;;;;;;4997444;28;20078;-79
2022/01/12 09:41:37;;;;;;;45.88;13.30;;;4.20;99.90;;;;;;4997741;28;20053;-79
2022/01/12 09:44:03;;;;;;;45.25;14.50;;;4.30;99.90;;;;;;4997627;28;20042;-79
2022/01/12 09:46:28;;;;;;;43.60;12.40;;;4.40;99.90;;;;;;4997172;28;20502;-78
2022/01/12 09:48:55;;;;;;;42.25;11.75;;;4.40;99.90;;;;;;4997279;28;20050;-79
2022/01/12 09:51:22;;;;;;;36.13;11.38;;;4.50;99.90;;;;;;4999505;28;20056;-79
2022/01/12 09:53:49;;;;;;;45.65;13.40;;;4.60;99.90;;;;;;4997057;28;20494;-79
2022/01/12 09:56:21;;;;;;;36.55;11.68;;;4.60;99.90;;;;;;4980008;28;20042;-79
2022/01/12 09:58:50;;;;;;;44.28;12.23;;;4.70;99.90;;;;;;4998651;28;20046;-79
2022/01/12 10:01:27;;;;;;;39.05;10.63;;;4.80;99.90;;;;;;4996347;28;20038;-79
2022/01/12 10:03:52;;;;;;;41.40;11.45;;;4.90;99.90;;;;;;4997026;28;20042;-78
2022/01/12 10:06:18;;;;;;;45.47;10.38;;;4.90;99.90;;;;;;4997532;28;20053;-79
2022/01/12 10:08:43;;;;;;;29.88;9.77;;;5.00;99.90;;;;;;4998899;28;20072;-78
2022/01/12 10:11:17;;;;;;;30.25;9.65;;;5.00;99.90;;;;;;4999398;28;20046;-79
2022/01/12 10:13:43;;;;;;;38.53;11.45;;;5.20;99.90;;;;;;5000331;28;20042;-78
2022/01/12 10:16:10;;;;;;;32.95;10.18;;;5.20;99.90;;;;;;4999542;28;20122;-79
2022/01/12 10:18:50;;;;;;;29.48;11.00;;;5.30;99.90;;;;;;5000189;28;20042;-79
2022/01/12 10:21:31;;;;;;;37.67;10.68;;;5.30;99.90;;;;;;5005355;28;20068;-78
2022/01/12 10:23:59;;;;;;;35.28;9.85;;;5.40;99.90;;;;;;4989262;28;20069;-78
2022/01/12 10:26:39;;;;;;;36.72;10.45;;;5.50;99.90;;;;;;5005937;28;20428;-78
2022/01/12 10:29:11;;;;;;;34.85;10.95;;;5.50;99.90;;;;;;5007039;28;20050;-79
2022/01/12 10:31:51;;;;;;;36.10;10.77;;;5.60;99.90;;;;;;5007814;28;20073;-78
2022/01/12 10:34:19;;;;;;;29.10;10.07;;;5.60;99.90;;;;;;5006311;28;20103;-79
2022/01/12 10:36:46;;;;;;;34.55;9.65;;;5.60;99.90;;;;;;5007720;28;20045;-78
2022/01/12 10:39:14;;;;;;;35.05;10.95;;;5.60;99.90;;;;;;4988833;28;20039;-78
2022/01/12 10:41:56;;;;;;;33.10;9.95;;;5.60;99.90;;;;;;4987824;28;20061;-78
2022/01/12 10:44:31;;;;;;;;;;;5.70;99.90;;;;;;5006525;28;20053;-78
2022/01/12 10:47:07;;;;;;;35.92;11.43;;;5.60;99.90;;;;;;4995168;28;19921;-82
2022/01/12 10:49:35;;;;;;;29.50;10.93;;;5.60;99.90;;;;;;4978902;28;20043;-82
2022/01/12 10:52:00;;;;;;;48.28;12.63;;;5.70;99.90;;;;;;5000428;28;20065;-77
2022/01/12 10:54:26;;;;;;;42.45;11.68;;;5.70;99.90;;;;;;5002480;28;20241;-79
2022/01/12 10:56:52;;;;;;;38.17;10.57;;;5.70;99.90;;;;;;5003292;28;20070;-78
2022/01/12 10:59:20;;;;;;;31.55;10.73;;;5.80;99.90;;;;;;5003060;28;20501;-79
2022/01/12 11:01:46;;;;;;;34.45;10.27;;;5.80;99.90;;;;;;5002371;28;20039;-78
2022/01/12 11:04:12;;;;;;;41.03;12.68;;;5.90;99.90;;;;;;5002827;28;20126;-78
2022/01/12 11:06:39;;;;;;;29.38;9.95;;;5.90;99.90;;;;;;4999231;28;20043;-78
2022/01/12 11:09:05;;;;;;;37.30;13.05;;;5.90;99.90;;;;;;5001447;28;20042;-78
2022/01/12 11:11:31;;;;;;;40.25;10.07;;;5.90;99.90;;;;;;4982147;28;20432;-78
2022/01/12 11:13:57;;;;;;;31.08;8.77;;;6.00;99.90;;;;;;4984635;28;20072;-79
2022/01/12 11:16:25;;;;;;;36.42;11.00;;;6.00;99.90;;;;;;5001063;28;20070;-78
2022/01/12 11:18:52;;;;;;;36.67;10.63;;;6.00;99.90;;;;;;5000672;28;20066;-78
2022/01/12 11:21:21;;;;;;;39.47;9.80;;;5.90;99.90;;;;;;4998470;28;20109;-77
2022/01/12 11:23:47;;;;;;;27.20;9.02;;;5.90;99.90;;;;;;4994210;28;20046;-78
2022/01/12 11:26:19;;;;;;;26.88;8.68;;;5.90;99.90;;;;;;4993583;28;20089;-77
2022/01/12 11:28:47;;;;;;;29.27;7.57;;;5.90;99.90;;;;;;4993872;28;20050;-77
2022/01/12 11:31:18;;;;;;;33.38;9.00;;;5.90;99.90;;;;;;4992521;28;20073;-77
2022/01/12 11:33:45;;;;;;;26.00;8.05;;;5.90;99.90;;;;;;4993762;28;20042;-78
2022/01/12 11:36:24;;;;;;;27.95;8.40;;;5.90;99.90;;;;;;4993478;28;20405;-77
2022/01/12 11:39:09;;;;;;;26.75;7.57;;;5.90;99.90;;;;;;4993552;28;20573;-77
2022/01/12 11:41:38;;;;;;;33.72;8.43;;;5.90;99.90;;;;;;4993794;28;20046;-78
2022/01/12 11:44:08;;;;;;;29.25;8.18;;;6.00;99.90;;;;;;4993710;28;20050;-77
2022/01/12 11:46:57;;;;;;;32.88;7.20;;;6.00;99.90;;;;;;4992841;28;20069;-77
2022/01/12 11:49:29;;;;;;;20.08;5.32;;;6.00;99.90;;;;;;4993584;28;20089;-77
2022/01/12 11:51:56;;;;;;;29.13;6.47;;;6.10;99.90;;;;;;4993419;28;20053;-77
2022/01/12 11:54:29;;;;;;;36.88;7.47;;;6.10;99.90;;;;;;4993162;28;20113;-77
2022/01/12 11:57:04;;;;;;;27.20;6.70;;;6.20;99.90;;;;;;4993039;28;20049;-77
2022/01/12 11:59:47;;;;;;;27.73;7.90;;;6.20;99.90;;;;;;4993047;28;20055;-77
2022/01/12 12:02:17;;;;;;;29.38;8.57;;;6.30;99.90;;;;;;4993198;28;20058;-77
2022/01/12 12:04:54;;;;;;;28.23;7.05;;;6.30;99.90;;;;;;4993258;28;20121;-77
2022/01/12 12:07:20;;;;;;;24.50;7.57;;;6.30;99.90;;;;;;4992851;28;20405;-77
2022/01/12 12:09:57;;;;;;;35.50;8.98;;;6.20;99.90;;;;;;4992956;28;20493;-78
2022/01/12 12:12:27;;;;;;;30.67;7.07;;;6.20;99.90;;;;;;4992948;28;20528;-77
2022/01/12 12:14:55;;;;;;;24.63;8.13;;;6.10;99.90;;;;;;4992862;28;20117;-77
2022/01/12 12:17:27;;;;;;;31.27;8.00;;;6.10;99.90;;;;;;4992590;28;20034;-76
2022/01/12 12:19:53;;;;;;;31.65;9.73;;;6.00;99.90;;;;;;4992721;28;20050;-78
2022/01/12 12:22:25;;;;;;;26.33;7.70;;;6.00;99.90;;;;;;4992944;28;20039;-78
2022/01/12 12:24:59;;;;;;;25.88;6.78;;;5.90;99.90;;;;;;4993013;28;20056;-76
2022/01/12 12:27:26;;;;;;;39.22;7.78;;;6.00;99.90;;;;;;4992653;28;20083;-77
2022/01/12 12:29:53;;;;;;;18.25;6.35;;;5.90;99.90;;;;;;4992532;28;20090;-77
2022/01/12 12:32:20;;;;;;;26.98;8.93;;;5.80;99.90;;;;;;4992564;28;20038;-77
2022/01/12 12:34:46;;;;;;;15.93;5.45;;;5.80;99.90;;;;;;4992567;28;20127;-78
2022/01/12 12:37:15;;;;;;;11.35;4.13;;;5.70;99.90;;;;;;4992567;28;20042;-77
2022/01/12 12:39:44;;;;;;;19.23;6.38;;;5.60;99.90;;;;;;4992085;28;20505;-78
2022/01/12 12:42:20;;;;;;;14.68;4.30;;;5.50;99.90;;;;;;4992298;28;20167;-80
2022/01/12 12:44:53;;;;;;;17.85;5.40;;;5.50;99.90;;;;;;4992657;28;20045;-80
2022/01/12 12:47:19;;;;;;;15.13;5.38;;;5.40;99.90;;;;;;4992459;28;20292;-79
2022/01/12 12:49:46;;;;;;;16.23;4.78;;;5.40;99.90;;;;;;4992311;28;20252;-80
2022/01/12 12:52:12;;;;;;;11.98;4.43;;;5.30;99.90;;;;;;4992347;28;20053;-81
2022/01/12 12:54:41;;;;;;;19.13;4.57;;;5.30;99.90;;;;;;4992492;28;20042;-80
2022/01/12 12:57:08;;;;;;;16.77;5.15;;;5.30;99.90;;;;;;4992122;28;20545;-80
2022/01/12 12:59:34;;;;;;;15.70;5.28;;;5.30;99.90;;;;;;4991842;28;20042;-77
2022/01/12 13:02:00;;;;;;;11.80;5.55;;;5.30;99.90;;;;;;4992096;28;20092;-77
2022/01/12 13:04:25;;;;;;;13.55;4.38;;;5.30;99.90;;;;;;4992266;28;20038;-77
2022/01/12 13:06:51;;;;;;;25.90;5.88;;;5.30;99.90;;;;;;4991839;28;20121;-77
2022/01/12 13:09:18;;;;;;;16.75;5.85;;;5.30;99.90;;;;;;4991707;28;20393;-77
2022/01/12 13:11:46;;;;;;;17.77;5.25;;;5.20;99.90;;;;;;4992545;28;20066;-77
2022/01/12 13:14:14;;;;;;;14.70;4.78;;;5.30;99.90;;;;;;4992735;28;20053;-78
2022/01/12 13:16:56;;;;;;;15.90;5.68;;;5.30;99.90;;;;;;4992972;28;20440;-77
2022/01/12 13:22:26;;;;;;;19.73;5.82;;;5.30;99.90;;;;;;4993391;28;20289;-78
2022/01/12 13:24:54;;;;;;;20.25;6.55;;;5.30;99.90;;;;;;4993433;28;20050;-77
2022/01/12 13:27:21;;;;;;;17.92;6.50;;;5.30;99.90;;;;;;4993066;28;20444;-77
2022/01/12 13:29:51;;;;;;;29.42;7.63;;;5.30;99.90;;;;;;4993062;28;20469;-78
2022/01/12 13:32:17;;;;;;;22.30;7.38;;;5.30;99.90;;;;;;4992831;28;20054;-78
2022/01/12 13:34:53;;;;;;;21.00;7.20;;;5.30;99.90;;;;;;4993097;28;20044;-77
2022/01/12 13:37:19;;;;;;;20.85;8.00;;;5.30;99.90;;;;;;4992745;28;20126;-77
2022/01/12 13:39:44;;;;;;;23.00;7.07;;;5.40;99.90;;;;;;4992509;28;20126;-77
2022/01/12 13:42:10;;;;;;;20.05;7.03;;;5.30;99.90;;;;;;4992482;28;20053;-77
2022/01/12 13:44:35;;;;;;;18.83;6.18;;;5.40;99.90;;;;;;4992144;28;20107;-78
2022/01/12 13:47:23;;;;;;;19.95;7.53;;;5.30;99.90;;;;;;4992141;28;20554;-78
2022/01/12 13:49:59;;;;;;;20.35;6.00;;;5.30;99.90;;;;;;4992626;28;20042;-78
2022/01/12 13:52:25;;;;;;;15.70;6.32;;;5.40;99.90;;;;;;4991917;28;20082;-77
2022/01/12 13:54:51;;;;;;;23.23;6.75;;;5.30;99.90;;;;;;4975602;28;20084;-77
2022/01/12 13:57:18;;;;;;;20.42;6.65;;;5.30;99.90;;;;;;4992024;28;20073;-78
2022/01/12 13:59:52;;;;;;;22.77;7.20;;;5.30;99.90;;;;;;4991585;28;20046;-78
2022/01/12 14:02:20;;;;;;;23.27;6.40;;;5.40;99.90;;;;;;4991874;28;20046;-77
2022/01/12 14:04:58;;;;;;;18.48;6.50;;;5.30;99.90;;;;;;4993635;28;20088;-77
2022/01/12 14:07:25;;;;;;;26.25;7.72;;;5.30;99.90;;;;;;4992394;28;20169;-78
2022/01/12 14:09:56;;;;;;;24.25;7.25;;;5.30;99.90;;;;;;4991885;28;20046;-77
2022/01/12 14:12:24;;;;;;;15.15;6.38;;;5.20;99.90;;;;;;4992230;28;20425;-78